sensor_id;sensor_type;location;lat;lon;timestamp;pressure;altitude;pressure_sealevel;temperature;humidity
66887;BME280;67239;51.680;5.976;2023-02-13T00:00:45;103623.69;;;6.75;86.82
66887;BME280;67239;51.680;5.976;2023-02-13T00:03:13;103628.03;;;6.75;86.75
66887;BME280;67239;51.680;5.976;2023-02-13T00:05:40;103614.91;;;6.73;87.05
66887;BME280;67239;51.680;5.976;2023-02-13T00:08:07;103614.94;;;6.75;86.90
66887;BME280;67239;51.680;5.976;2023-02-13T00:10:34;103613.97;;;6.73;86.99
66887;BME280;67239;51.680;5.976;2023-02-13T00:13:01;103609.66;;;6.73;87.09
66887;BME280;67239;51.680;5.976;2023-02-13T00:15:28;103609.59;;;6.72;87.11
66887;BME280;67239;51.680;5.976;2023-02-13T00:17:55;103606.94;;;6.70;87.43
66887;BME280;67239;51.680;5.976;2023-02-13T00:20:22;103604.31;;;6.70;87.11
66887;BME280;67239;51.680;5.976;2023-02-13T00:22:49;103602.44;;;6.66;87.23
66887;BME280;67239;51.680;5.976;2023-02-13T00:25:16;103607.63;;;6.64;87.43
66887;BME280;67239;51.680;5.976;2023-02-13T00:27:43;103610.25;;;6.64;87.56
66887;BME280;67239;51.680;5.976;2023-02-13T00:30:10;103605.84;;;6.63;87.52
66887;BME280;67239;51.680;5.976;2023-02-13T00:32:38;103608.47;;;6.63;87.38
66887;BME280;67239;51.680;5.976;2023-02-13T00:35:05;103607.69;;;6.66;87.67
66887;BME280;67239;51.680;5.976;2023-02-13T00:37:32;103609.38;;;6.64;87.74
66887;BME280;67239;51.680;5.976;2023-02-13T00:39:59;103605.91;;;6.65;87.89
66887;BME280;67239;51.680;5.976;2023-02-13T00:42:27;103601.53;;;6.65;87.68
66887;BME280;67239;51.680;5.976;2023-02-13T00:44:54;103605.91;;;6.65;87.74
66887;BME280;67239;51.680;5.976;2023-02-13T00:47:22;103606.75;;;6.64;88.01
66887;BME280;67239;51.680;5.976;2023-02-13T00:49:49;103602.34;;;6.63;88.08
66887;BME280;67239;51.680;5.976;2023-02-13T00:52:16;103598.81;;;6.62;87.96
66887;BME280;67239;51.680;5.976;2023-02-13T00:54:43;103600.59;;;6.63;88.16
66887;BME280;67239;51.680;5.976;2023-02-13T00:57:11;103604.97;;;6.63;87.77
66887;BME280;67239;51.680;5.976;2023-02-13T00:59:38;103605.81;;;6.62;88.09
66887;BME280;67239;51.680;5.976;2023-02-13T01:02:05;103605.81;;;6.62;88.16
66887;BME280;67239;51.680;5.976;2023-02-13T01:04:32;103607.56;;;6.61;88.00
66887;BME280;67239;51.680;5.976;2023-02-13T01:06:59;103609.38;;;6.64;88.02
66887;BME280;67239;51.680;5.976;2023-02-13T01:09:26;103607.59;;;6.63;88.02
66887;BME280;67239;51.680;5.976;2023-02-13T01:11:53;103608.53;;;6.65;88.06
66887;BME280;67239;51.680;5.976;2023-02-13T01:14:20;103609.38;;;6.64;88.01
66887;BME280;67239;51.680;5.976;2023-02-13T01:16:48;103609.41;;;6.65;88.20
66887;BME280;67239;51.680;5.976;2023-02-13T01:19:15;103609.38;;;6.64;88.26
66887;BME280;67239;51.680;5.976;2023-02-13T01:21:42;103605.84;;;6.63;88.38
66887;BME280;67239;51.680;5.976;2023-02-13T01:24:10;103614.66;;;6.65;88.19
66887;BME280;67239;51.680;5.976;2023-02-13T01:26:37;103608.56;;;6.66;88.39
66887;BME280;67239;51.680;5.976;2023-02-13T01:29:04;103611.22;;;6.68;88.31
66887;BME280;67239;51.680;5.976;2023-02-13T01:31:32;103609.53;;;6.70;88.37
66887;BME280;67239;51.680;5.976;2023-02-13T01:33:59;103606.19;;;6.74;88.24
66887;BME280;67239;51.680;5.976;2023-02-13T01:36:26;103603.56;;;6.74;88.18
66887;BME280;67239;51.680;5.976;2023-02-13T01:38:56;103601.72;;;6.72;88.22
66887;BME280;67239;51.680;5.976;2023-02-13T01:41:26;103611.38;;;6.73;88.27
66887;BME280;67239;51.680;5.976;2023-02-13T01:43:58;103606.13;;;6.73;88.11
66887;BME280;67239;51.680;5.976;2023-02-13T01:46:36;103608.75;;;6.73;88.09
66887;BME280;67239;51.680;5.976;2023-02-13T01:49:14;103609.66;;;6.73;88.18
66887;BME280;67239;51.680;5.976;2023-02-13T01:51:48;103600.88;;;6.73;88.40
66887;BME280;67239;51.680;5.976;2023-02-13T01:54:22;103604.41;;;6.73;88.31
66887;BME280;67239;51.680;5.976;2023-02-13T01:57:06;103604.44;;;6.75;88.41
66887;BME280;67239;51.680;5.976;2023-02-13T02:02:13;103606.88;;;6.68;88.08
66887;BME280;67239;51.680;5.976;2023-02-13T02:04:41;103601.66;;;6.68;88.18
66887;BME280;67239;51.680;5.976;2023-02-13T02:07:23;103598.13;;;6.68;88.32
66887;BME280;67239;51.680;5.976;2023-02-13T02:09:57;103591.19;;;6.70;88.21
66887;BME280;67239;51.680;5.976;2023-02-13T02:12:33;103588.56;;;6.70;88.37
66887;BME280;67239;51.680;5.976;2023-02-13T02:15:06;103591.16;;;6.68;88.42
66887;BME280;67239;51.680;5.976;2023-02-13T02:17:34;103583.22;;;6.67;88.55
66887;BME280;67239;51.680;5.976;2023-02-13T02:29:47;103589.38;;;6.67;88.59
66887;BME280;67239;51.680;5.976;2023-02-13T02:32:38;103590.25;;;6.68;88.49
66887;BME280;67239;51.680;5.976;2023-02-13T02:38:12;103579.75;;;6.68;88.52
66887;BME280;67239;51.680;5.976;2023-02-13T02:43:57;103581.34;;;6.61;88.57
66887;BME280;67239;51.680;5.976;2023-02-13T02:49:41;103578.56;;;6.57;88.93
66887;BME280;67239;51.680;5.976;2023-02-13T02:55:26;103578.66;;;6.60;88.75
66887;BME280;67239;51.680;5.976;2023-02-13T02:58:13;103578.66;;;6.60;89.03
66887;BME280;67239;51.680;5.976;2023-02-13T03:01:07;103574.19;;;6.56;88.88
66887;BME280;67239;51.680;5.976;2023-02-13T03:03:58;103576.88;;;6.59;88.87
66887;BME280;67239;51.680;5.976;2023-02-13T03:06:54;103577.72;;;6.58;88.96
66887;BME280;67239;51.680;5.976;2023-02-13T03:09:28;103577.63;;;6.55;88.75
66887;BME280;67239;51.680;5.976;2023-02-13T03:12:21;103585.41;;;6.51;89.18
66887;BME280;67239;51.680;5.976;2023-02-13T03:15:08;103582.78;;;6.51;89.02
66887;BME280;67239;51.680;5.976;2023-02-13T03:17:36;103582.75;;;6.50;89.16
66887;BME280;67239;51.680;5.976;2023-02-13T03:20:47;103587.16;;;6.51;89.10
66887;BME280;67239;51.680;5.976;2023-02-13T03:26:40;103576.59;;;6.49;89.07
66887;BME280;67239;51.680;5.976;2023-02-13T03:29:38;103579.19;;;6.48;89.36
66887;BME280;67239;51.680;5.976;2023-02-13T03:32:44;103573.94;;;6.48;89.45
66887;BME280;67239;51.680;5.976;2023-02-13T03:35:46;103573.88;;;6.46;89.50
66887;BME280;67239;51.680;5.976;2023-02-13T03:39:00;103566.81;;;6.44;89.56
66887;BME280;67239;51.680;5.976;2023-02-13T03:41:43;103570.28;;;6.43;89.31
66887;BME280;67239;51.680;5.976;2023-02-13T03:44:36;103567.50;;;6.38;89.37
66887;BME280;67239;51.680;5.976;2023-02-13T03:47:37;103574.34;;;6.33;89.16
66887;BME280;67239;51.680;5.976;2023-02-13T03:50:07;103579.53;;;6.31;89.45
66887;BME280;67239;51.680;5.976;2023-02-13T03:52:52;103574.25;;;6.30;89.35
66887;BME280;67239;51.680;5.976;2023-02-13T03:55:32;103579.38;;;6.27;89.27
66887;BME280;67239;51.680;5.976;2023-02-13T03:58:34;103573.16;;;6.23;89.42
66887;BME280;67239;51.680;5.976;2023-02-13T04:01:25;103573.94;;;6.19;89.46
66887;BME280;67239;51.680;5.976;2023-02-13T04:06:52;103580.81;;;6.15;89.25
66887;BME280;67239;51.680;5.976;2023-02-13T04:09:26;103582.41;;;6.12;89.62
66887;BME280;67239;51.680;5.976;2023-02-13T04:14:48;103586.72;;;6.10;89.82
66887;BME280;67239;51.680;5.976;2023-02-13T04:17:32;103586.59;;;6.05;89.70
66887;BME280;67239;51.680;5.976;2023-02-13T04:20:05;103583.78;;;6.00;89.94
66887;BME280;67239;51.680;5.976;2023-02-13T04:22:33;103581.94;;;5.98;89.84
66887;BME280;67239;51.680;5.976;2023-02-13T04:25:00;103581.88;;;5.96;90.02
66887;BME280;67239;51.680;5.976;2023-02-13T04:27:27;103583.72;;;5.99;90.37
66887;BME280;67239;51.680;5.976;2023-02-13T04:29:54;103591.63;;;6.00;90.48
66887;BME280;67239;51.680;5.976;2023-02-13T04:32:21;103582.03;;;5.99;90.76
66887;BME280;67239;51.680;5.976;2023-02-13T04:34:48;103585.56;;;6.01;90.49
66887;BME280;67239;51.680;5.976;2023-02-13T04:37:15;103579.50;;;6.02;90.48
66887;BME280;67239;51.680;5.976;2023-02-13T04:39:42;103590.06;;;6.05;90.44
66887;BME280;67239;51.680;5.976;2023-02-13T04:42:09;103583.22;;;6.09;90.77
66887;BME280;67239;51.680;5.976;2023-02-13T04:44:36;103577.25;;;6.13;90.57
66887;BME280;67239;51.680;5.976;2023-02-13T04:47:03;103585.09;;;6.13;90.81
66887;BME280;67239;51.680;5.976;2023-02-13T04:49:30;103580.81;;;6.15;90.83
66887;BME280;67239;51.680;5.976;2023-02-13T04:51:57;103567.69;;;6.15;90.63
66887;BME280;67239;51.680;5.976;2023-02-13T04:54:24;103567.75;;;6.17;90.69
66887;BME280;67239;51.680;5.976;2023-02-13T04:56:51;103571.16;;;6.14;90.45
66887;BME280;67239;51.680;5.976;2023-02-13T04:59:18;103571.06;;;6.11;90.51
66887;BME280;67239;51.680;5.976;2023-02-13T05:01:45;103566.53;;;6.07;90.42
66887;BME280;67239;51.680;5.976;2023-02-13T05:04:12;103567.22;;;6.01;90.73
66887;BME280;67239;51.680;5.976;2023-02-13T05:06:42;103562.84;;;6.00;90.61
66887;BME280;67239;51.680;5.976;2023-02-13T05:09:09;103565.28;;;5.96;90.76
66887;BME280;67239;51.680;5.976;2023-02-13T05:11:37;103566.88;;;5.90;90.71
66887;BME280;67239;51.680;5.976;2023-02-13T05:14:04;103573.72;;;5.87;90.66
66887;BME280;67239;51.680;5.976;2023-02-13T05:16:31;103570.13;;;5.83;90.78
66887;BME280;67239;51.680;5.976;2023-02-13T05:18:59;103562.19;;;5.82;91.04
66887;BME280;67239;51.680;5.976;2023-02-13T05:21:26;103564.75;;;5.79;91.44
66887;BME280;67239;51.680;5.976;2023-02-13T05:24:11;103568.88;;;5.72;91.22
66887;BME280;67239;51.680;5.976;2023-02-13T05:26:38;103561.47;;;5.60;91.06
66887;BME280;67239;51.680;5.976;2023-02-13T05:29:05;103562.06;;;5.51;91.08
66887;BME280;67239;51.680;5.976;2023-02-13T05:31:53;103558.34;;;5.44;91.23
66887;BME280;67239;51.680;5.976;2023-02-13T05:34:23;103561.69;;;5.40;91.64
66887;BME280;67239;51.680;5.976;2023-02-13T05:36:52;103555.63;;;5.41;92.54
66887;BME280;67239;51.680;5.976;2023-02-13T05:39:19;103565.53;;;5.50;93.24
66887;BME280;67239;51.680;5.976;2023-02-13T05:41:47;103556.84;;;5.51;93.21
66887;BME280;67239;51.680;5.976;2023-02-13T05:44:15;103549.88;;;5.52;92.87
66887;BME280;67239;51.680;5.976;2023-02-13T05:46:43;103546.50;;;5.54;93.23
66887;BME280;67239;51.680;5.976;2023-02-13T05:49:12;103550.03;;;5.56;93.25
66887;BME280;67239;51.680;5.976;2023-02-13T05:51:44;103555.53;;;5.64;93.73
66887;BME280;67239;51.680;5.976;2023-02-13T05:54:13;103554.16;;;5.75;93.93
66887;BME280;67239;51.680;5.976;2023-02-13T05:56:40;103552.56;;;5.81;93.55
66887;BME280;67239;51.680;5.976;2023-02-13T05:59:07;103552.72;;;5.85;93.31
66887;BME280;67239;51.680;5.976;2023-02-13T06:01:34;103552.00;;;5.89;93.55
66887;BME280;67239;51.680;5.976;2023-02-13T06:04:01;103548.53;;;5.90;93.52
66887;BME280;67239;51.680;5.976;2023-02-13T06:06:29;103551.84;;;5.85;92.48
66887;BME280;67239;51.680;5.976;2023-02-13T06:08:56;103550.63;;;5.75;92.25
66887;BME280;67239;51.680;5.976;2023-02-13T06:11:23;103552.34;;;5.73;92.48
66887;BME280;67239;51.680;5.976;2023-02-13T06:13:50;103549.44;;;5.65;92.46
66887;BME280;67239;51.680;5.976;2023-02-13T06:16:17;103553.84;;;5.66;92.32
66887;BME280;67239;51.680;5.976;2023-02-13T06:18:45;103552.09;;;5.67;92.65
66887;BME280;67239;51.680;5.976;2023-02-13T06:21:12;103553.84;;;5.66;92.37
66887;BME280;67239;51.680;5.976;2023-02-13T06:23:39;103550.13;;;5.59;91.97
66887;BME280;67239;51.680;5.976;2023-02-13T06:26:07;103538.63;;;5.54;91.92
66887;BME280;67239;51.680;5.976;2023-02-13T06:28:34;103544.28;;;5.41;91.70
66887;BME280;67239;51.680;5.976;2023-02-13T06:31:02;103549.75;;;5.23;91.66
66887;BME280;67239;51.680;5.976;2023-02-13T06:33:29;103551.88;;;5.09;91.74
66887;BME280;67239;51.680;5.976;2023-02-13T06:35:56;103554.94;;;4.97;92.51
66887;BME280;67239;51.680;5.976;2023-02-13T06:38:23;103553.75;;;4.89;92.94
66887;BME280;67239;51.680;5.976;2023-02-13T06:40:50;103554.44;;;4.83;93.47
66887;BME280;67239;51.680;5.976;2023-02-13T06:43:18;103555.09;;;4.77;93.68
66887;BME280;67239;51.680;5.976;2023-02-13T06:45:45;103549.63;;;4.71;93.55
66887;BME280;67239;51.680;5.976;2023-02-13T06:48:13;103557.41;;;4.70;94.05
66887;BME280;67239;51.680;5.976;2023-02-13T06:50:40;103562.38;;;4.63;94.19
66887;BME280;67239;51.680;5.976;2023-02-13T06:53:07;103559.56;;;4.57;94.43
66887;BME280;67239;51.680;5.976;2023-02-13T06:55:34;103560.25;;;4.53;94.37
66887;BME280;67239;51.680;5.976;2023-02-13T06:58:02;103571.50;;;4.50;94.72
66887;BME280;67239;51.680;5.976;2023-02-13T07:00:29;103564.44;;;4.48;94.78
66887;BME280;67239;51.680;5.976;2023-02-13T07:03:04;103570.34;;;4.44;94.74
66887;BME280;67239;51.680;5.976;2023-02-13T07:05:32;103571.09;;;4.40;95.08
66887;BME280;67239;51.680;5.976;2023-02-13T07:07:59;103567.50;;;4.38;95.00
66887;BME280;67239;51.680;5.976;2023-02-13T07:10:26;103571.78;;;4.35;95.06
66887;BME280;67239;51.680;5.976;2023-02-13T07:12:53;103577.00;;;4.35;95.65
66887;BME280;67239;51.680;5.976;2023-02-13T07:15:32;103577.13;;;4.39;95.73
66887;BME280;67239;51.680;5.976;2023-02-13T07:18:01;103585.94;;;4.41;95.99
66887;BME280;67239;51.680;5.976;2023-02-13T07:20:29;103588.47;;;4.39;95.85
66887;BME280;67239;51.680;5.976;2023-02-13T07:23:00;103587.53;;;4.37;95.74
66887;BME280;67239;51.680;5.976;2023-02-13T07:25:28;103591.81;;;4.35;95.69
66887;BME280;67239;51.680;5.976;2023-02-13T07:28:03;103585.81;;;4.38;95.87
66887;BME280;67239;51.680;5.976;2023-02-13T07:30:32;103599.03;;;4.42;96.13
66887;BME280;67239;51.680;5.976;2023-02-13T07:33:01;103599.22;;;4.47;96.38
66887;BME280;67239;51.680;5.976;2023-02-13T07:35:30;103586.22;;;4.48;96.38
66887;BME280;67239;51.680;5.976;2023-02-13T07:37:58;103600.31;;;4.52;96.49
66887;BME280;67239;51.680;5.976;2023-02-13T07:40:26;103594.44;;;4.58;96.20
66887;BME280;67239;51.680;5.976;2023-02-13T07:42:54;103594.72;;;4.65;96.62
66887;BME280;67239;51.680;5.976;2023-02-13T07:45:22;103597.56;;;4.72;96.43
66887;BME280;67239;51.680;5.976;2023-02-13T07:47:49;103596.00;;;4.77;96.61
66887;BME280;67239;51.680;5.976;2023-02-13T07:50:16;103601.59;;;4.86;96.58
66887;BME280;67239;51.680;5.976;2023-02-13T07:52:43;103597.47;;;4.93;96.23
66887;BME280;67239;51.680;5.976;2023-02-13T07:55:10;103597.78;;;5.01;96.61
66887;BME280;67239;51.680;5.976;2023-02-13T07:57:37;103598.13;;;5.10;96.53
66887;BME280;67239;51.680;5.976;2023-02-13T08:00:05;103602.81;;;5.19;96.17
66887;BME280;67239;51.680;5.976;2023-02-13T08:02:37;103608.25;;;5.25;95.98
66887;BME280;67239;51.680;5.976;2023-02-13T08:05:05;103608.41;;;5.29;95.87
66887;BME280;67239;51.680;5.976;2023-02-13T08:07:33;103607.84;;;5.38;95.85
66887;BME280;67239;51.680;5.976;2023-02-13T08:10:00;103594.94;;;5.43;95.66
66887;BME280;67239;51.680;5.976;2023-02-13T08:12:46;103604.91;;;5.53;95.53
66887;BME280;67239;51.680;5.976;2023-02-13T08:15:14;103605.25;;;5.64;95.55
66887;BME280;67239;51.680;5.976;2023-02-13T08:17:41;103603.69;;;5.69;95.16
66887;BME280;67239;51.680;5.976;2023-02-13T08:20:09;103608.34;;;5.78;94.97
66887;BME280;67239;51.680;5.976;2023-02-13T08:22:37;103603.41;;;5.87;94.79
66887;BME280;67239;51.680;5.976;2023-02-13T08:25:05;103604.50;;;5.94;94.93
66887;BME280;67239;51.680;5.976;2023-02-13T08:27:33;103603.91;;;6.01;94.56
66887;BME280;67239;51.680;5.976;2023-02-13T08:30:00;103609.44;;;6.11;94.18
66887;BME280;67239;51.680;5.976;2023-02-13T08:32:28;103610.50;;;6.16;94.09
66887;BME280;67239;51.680;5.976;2023-02-13T08:34:55;103613.41;;;6.25;93.41
66887;BME280;67239;51.680;5.976;2023-02-13T08:37:23;103613.66;;;6.33;93.20
66887;BME280;67239;51.680;5.976;2023-02-13T08:39:50;103611.19;;;6.37;93.06
66887;BME280;67239;51.680;5.976;2023-02-13T08:42:17;103621.13;;;6.48;92.55
66887;BME280;67239;51.680;5.976;2023-02-13T08:44:44;103612.47;;;6.52;92.50
66887;BME280;67239;51.680;5.976;2023-02-13T08:47:11;103621.50;;;6.60;92.44
66887;BME280;67239;51.680;5.976;2023-02-13T08:49:38;103631.34;;;6.69;92.17
66887;BME280;67239;51.680;5.976;2023-02-13T08:52:05;103623.69;;;6.75;91.74
66887;BME280;67239;51.680;5.976;2023-02-13T08:54:33;103630.88;;;6.81;91.68
66887;BME280;67239;51.680;5.976;2023-02-13T08:57:02;103627.59;;;6.90;91.82
66887;BME280;67239;51.680;5.976;2023-02-13T08:59:29;103630.50;;;6.99;91.63
66887;BME280;67239;51.680;5.976;2023-02-13T09:01:56;103628.13;;;7.08;91.17
66887;BME280;67239;51.680;5.976;2023-02-13T09:04:23;103624.06;;;7.18;90.23
66887;BME280;67239;51.680;5.976;2023-02-13T09:06:50;103625.06;;;7.23;90.00
66887;BME280;67239;51.680;5.976;2023-02-13T09:09:18;103624.41;;;7.30;89.97
66887;BME280;67239;51.680;5.976;2023-02-13T09:11:45;103634.13;;;7.35;89.60
66887;BME280;67239;51.680;5.976;2023-02-13T09:14:12;103635.22;;;7.43;89.58
66887;BME280;67239;51.680;5.976;2023-02-13T09:16:39;103628.41;;;7.50;89.80
66887;BME280;67239;51.680;5.976;2023-02-13T09:19:06;103627.78;;;7.58;89.19
66887;BME280;67239;51.680;5.976;2023-02-13T09:21:33;103631.50;;;7.67;89.00
66887;BME280;67239;51.680;5.976;2023-02-13T09:24:00;103623.81;;;7.73;88.87
66887;BME280;67239;51.680;5.976;2023-02-13T09:26:27;103635.31;;;7.80;88.44
66887;BME280;67239;51.680;5.976;2023-02-13T09:28:54;103633.75;;;7.86;87.53
66887;BME280;67239;51.680;5.976;2023-02-13T09:31:21;103626.84;;;7.90;87.83
66887;BME280;67239;51.680;5.976;2023-02-13T09:33:50;103626.09;;;7.96;87.40
66887;BME280;67239;51.680;5.976;2023-02-13T09:36:19;103628.91;;;8.02;86.34
66887;BME280;67239;51.680;5.976;2023-02-13T09:38:52;103634.31;;;8.08;nan
66887;BME280;67239;51.680;5.976;2023-02-13T09:41:30;103630.81;;;8.07;85.29
66887;BME280;67239;51.680;5.976;2023-02-13T09:44:14;103630.00;;;8.12;85.16
66887;BME280;67239;51.680;5.976;2023-02-13T09:47:18;103630.13;;;8.16;85.43
66887;BME280;67239;51.680;5.976;2023-02-13T09:49:49;103632.91;;;8.22;85.66
66887;BME280;67239;51.680;5.976;2023-02-13T09:52:20;103626.91;;;8.28;85.83
66887;BME280;67239;51.680;5.976;2023-02-13T09:54:47;103625.34;;;8.36;85.17
66887;BME280;67239;51.680;5.976;2023-02-13T09:57:33;103622.91;;;8.44;85.70
66887;BME280;67239;51.680;5.976;2023-02-13T10:00:15;103620.47;;;8.52;85.54
66887;BME280;67239;51.680;5.976;2023-02-13T10:08:20;103617.50;;;8.76;82.82
66887;BME280;67239;51.680;5.976;2023-02-13T10:14:00;103622.00;;;8.82;83.22
66887;BME280;67239;51.680;5.976;2023-02-13T10:16:44;103622.25;;;8.93;82.92
66887;BME280;67239;51.680;5.976;2023-02-13T10:19:43;103618.03;;;9.01;81.94
66887;BME280;67239;51.680;5.976;2023-02-13T10:22:22;103616.34;;;9.06;82.53
66887;BME280;67239;51.680;5.976;2023-02-13T10:25:20;103617.38;;;9.13;82.35
66887;BME280;67239;51.680;5.976;2023-02-13T10:27:59;103619.31;;;9.22;81.34
66887;BME280;67239;51.680;5.976;2023-02-13T10:30:48;103625.53;;;9.25;81.16
66887;BME280;67239;51.680;5.976;2023-02-13T10:38:42;103624.16;;;9.46;80.63
66887;BME280;67239;51.680;5.976;2023-02-13T10:41:22;103622.53;;;9.51;79.75
66887;BME280;67239;51.680;5.976;2023-02-13T10:44:11;103620.81;;;9.55;78.45
66887;BME280;67239;51.680;5.976;2023-02-13T10:47:13;103607.63;;;9.53;78.26
66887;BME280;67239;51.680;5.976;2023-02-13T10:56:22;103611.56;;;9.77;78.66
66887;BME280;67239;51.680;5.976;2023-02-13T11:02:08;103604.88;;;9.98;77.89
66887;BME280;67239;51.680;5.976;2023-02-13T11:04:51;103597.03;;;10.02;77.02
66887;BME280;67239;51.680;5.976;2023-02-13T11:07:22;103589.19;;;10.05;77.42
66887;BME280;67239;51.680;5.976;2023-02-13T11:09:54;103591.91;;;10.12;77.95
66887;BME280;67239;51.680;5.976;2023-02-13T11:12:33;103585.03;;;10.21;78.15
66887;BME280;67239;51.680;5.976;2023-02-13T11:15:02;103588.69;;;10.33;77.11
66887;BME280;67239;51.680;5.976;2023-02-13T11:17:34;103586.19;;;10.39;75.55
66887;BME280;67239;51.680;5.976;2023-02-13T11:20:30;103576.50;;;10.38;75.88
66887;BME280;67239;51.680;5.976;2023-02-13T11:28:28;103572.44;;;10.62;76.22
66887;BME280;67239;51.680;5.976;2023-02-13T11:31:27;103569.06;;;10.72;76.09
66887;BME280;67239;51.680;5.976;2023-02-13T11:33:56;103567.34;;;10.77;76.09
66887;BME280;67239;51.680;5.976;2023-02-13T11:36:29;103563.03;;;10.82;74.20
66887;BME280;67239;51.680;5.976;2023-02-13T11:39:04;103558.56;;;10.78;74.36
66887;BME280;67239;51.680;5.976;2023-02-13T11:41:39;103558.63;;;10.81;73.79
66887;BME280;67239;51.680;5.976;2023-02-13T11:44:30;103551.63;;;10.86;74.24
66887;BME280;67239;51.680;5.976;2023-02-13T11:47:00;103542.03;;;10.92;73.59
66887;BME280;67239;51.680;5.976;2023-02-13T11:49:30;103542.03;;;10.92;73.12
66887;BME280;67239;51.680;5.976;2023-02-13T11:55:04;103542.13;;;11.04;71.86
66887;BME280;67239;51.680;5.976;2023-02-13T11:58:02;103539.50;;;11.04;72.28
66887;BME280;67239;51.680;5.976;2023-02-13T12:00:47;103541.31;;;11.08;72.40
66887;BME280;67239;51.680;5.976;2023-02-13T12:06:04;103530.81;;;11.14;71.85
66887;BME280;67239;51.680;5.976;2023-02-13T12:08:36;103537.91;;;11.18;71.39
66887;BME280;67239;51.680;5.976;2023-02-13T12:14:01;103525.69;;;11.28;71.93
66887;BME280;67239;51.680;5.976;2023-02-13T12:16:35;103530.19;;;11.40;71.45
66887;BME280;67239;51.680;5.976;2023-02-13T12:19:16;103533.75;;;11.44;70.20
66887;BME280;67239;51.680;5.976;2023-02-13T12:24:52;103528.50;;;11.47;70.21
66887;BME280;67239;51.680;5.976;2023-02-13T12:27:47;103525.03;;;11.56;69.70
66887;BME280;67239;51.680;5.976;2023-02-13T12:36:01;103517.19;;;11.62;69.68
66887;BME280;67239;51.680;5.976;2023-02-13T12:38:48;103503.13;;;11.69;69.80
66887;BME280;67239;51.680;5.976;2023-02-13T12:47:26;103498.78;;;11.76;69.16
66887;BME280;67239;51.680;5.976;2023-02-13T12:53:18;103492.66;;;11.83;69.50
66887;BME280;67239;51.680;5.976;2023-02-13T12:59:26;103489.22;;;11.96;69.75
66887;BME280;67239;51.680;5.976;2023-02-13T13:02:18;103491.97;;;12.10;68.36
66887;BME280;67239;51.680;5.976;2023-02-13T13:05:26;103488.47;;;12.15;67.75
66887;BME280;67239;51.680;5.976;2023-02-13T13:11:16;103477.03;;;12.16;67.91
66887;BME280;67239;51.680;5.976;2023-02-13T13:14:01;103479.66;;;12.17;68.19
66887;BME280;67239;51.680;5.976;2023-02-13T13:17:00;103467.38;;;12.24;68.92
66887;BME280;67239;51.680;5.976;2023-02-13T13:22:52;103460.38;;;12.43;69.15
66887;BME280;67239;51.680;5.976;2023-02-13T13:25:50;103466.56;;;12.50;66.82
66887;BME280;67239;51.680;5.976;2023-02-13T13:28:37;103461.28;;;12.43;66.26
66887;BME280;67239;51.680;5.976;2023-02-13T13:31:07;103468.31;;;12.35;66.76
66887;BME280;67239;51.680;5.976;2023-02-13T13:33:40;103473.59;;;12.37;66.65
66887;BME280;67239;51.680;5.976;2023-02-13T13:36:42;103465.66;;;12.35;66.90
66887;BME280;67239;51.680;5.976;2023-02-13T13:42:39;103454.19;;;12.35;66.22
66887;BME280;67239;51.680;5.976;2023-02-13T13:48:20;103443.63;;;12.41;66.57
66887;BME280;67239;51.680;5.976;2023-02-13T13:51:23;103441.84;;;12.38;66.57
66887;BME280;67239;51.680;5.976;2023-02-13T14:05:18;103439.25;;;12.57;66.58
66887;BME280;67239;51.680;5.976;2023-02-13T14:08:03;103437.50;;;12.62;65.34
66887;BME280;67239;51.680;5.976;2023-02-13T14:17:02;103423.38;;;12.45;64.99
66887;BME280;67239;51.680;5.976;2023-02-13T14:19:36;103427.75;;;12.44;64.96
66887;BME280;67239;51.680;5.976;2023-02-13T14:24:59;103420.69;;;12.40;65.62
66887;BME280;67239;51.680;5.976;2023-02-13T14:27:33;103416.31;;;12.43;65.96
66887;BME280;67239;51.680;5.976;2023-02-13T14:30:25;103418.09;;;12.49;65.45
66887;BME280;67239;51.680;5.976;2023-02-13T14:32:56;103412.81;;;12.54;64.70
66887;BME280;67239;51.680;5.976;2023-02-13T14:35:31;103410.13;;;12.52;64.67
66887;BME280;67239;51.680;5.976;2023-02-13T14:38:03;103403.97;;;12.52;64.86
66887;BME280;67239;51.680;5.976;2023-02-13T14:43:36;103407.50;;;12.54;64.29
66887;BME280;67239;51.680;5.976;2023-02-13T14:46:38;103412.78;;;12.49;64.49
66887;BME280;67239;51.680;5.976;2023-02-13T14:49:18;103406.63;;;12.46;64.90
66887;BME280;67239;51.680;5.976;2023-02-13T14:52:00;103400.44;;;12.48;64.85
66887;BME280;67239;51.680;5.976;2023-02-13T14:57:16;103399.53;;;12.46;64.99
66887;BME280;67239;51.680;5.976;2023-02-13T14:59:58;103394.28;;;12.49;65.25
66887;BME280;67239;51.680;5.976;2023-02-13T15:02:36;103402.19;;;12.51;64.79
66887;BME280;67239;51.680;5.976;2023-02-13T15:05:15;103393.38;;;12.53;65.49
66887;BME280;67239;51.680;5.976;2023-02-13T15:07:50;103389.88;;;12.59;64.82
66887;BME280;67239;51.680;5.976;2023-02-13T15:10:42;103402.22;;;12.60;64.17
66887;BME280;67239;51.680;5.976;2023-02-13T15:13:34;103395.16;;;12.54;64.53
66887;BME280;67239;51.680;5.976;2023-02-13T15:16:11;103401.31;;;12.52;64.86
66887;BME280;67239;51.680;5.976;2023-02-13T15:18:43;103403.06;;;12.50;65.23
66887;BME280;67239;51.680;5.976;2023-02-13T15:21:18;103402.19;;;12.51;65.76
66887;BME280;67239;51.680;5.976;2023-02-13T15:23:49;103403.09;;;12.51;65.18
66887;BME280;67239;51.680;5.976;2023-02-13T15:26:23;103398.66;;;12.49;65.10
66887;BME280;67239;51.680;5.976;2023-02-13T15:29:17;103401.31;;;12.46;64.98
66887;BME280;67239;51.680;5.976;2023-02-13T15:31:58;103401.28;;;12.39;65.17
66887;BME280;67239;51.680;5.976;2023-02-13T15:34:30;103397.75;;;12.36;64.79
66887;BME280;67239;51.680;5.976;2023-02-13T15:37:00;103393.31;;;12.27;65.59
66887;BME280;67239;51.680;5.976;2023-02-13T15:39:30;103393.28;;;12.22;65.80
66887;BME280;67239;51.680;5.976;2023-02-13T15:42:00;103385.34;;;12.16;65.79
66887;BME280;67239;51.680;5.976;2023-02-13T15:44:34;103374.75;;;12.11;66.03